Terminal Aerodrome Forecast
Issued by NWS

Home | Current Version | Previous Version | Text Only | Print | Product List | Glossary On
Versions: 1 2 3 4 5 6 7 8 9 10 11 12 13 14 15
000
FTUS45 KABQ 231145
TAFSAF
TAF
KSAF 231145Z 2312/2412 VRB04KT P6SM OVC050
     FM231400 23008KT P6SM BKN060
     FM231800 23015G25KT P6SM SCT060 SCT100
     FM240500 25017G27KT 5SM -SN OVC019
     FM240900 28010G17KT 2SM -SN BR OVC009=

USA.gov is the U.S. government's official web portal to all federal, state and local government web resources and services.